createdAt,value
2018-05-27T00:00:07.297Z,91.20
2018-05-27T00:02:34.888Z,91.30
2018-05-27T00:05:02.433Z,91.10
2018-05-27T00:07:30.030Z,90.50
2018-05-27T00:09:57.579Z,90.40
2018-05-27T00:12:25.148Z,90.90
2018-05-27T00:14:52.670Z,91.10
2018-05-27T00:17:20.244Z,91.10
2018-05-27T00:19:47.828Z,91.00
2018-05-27T00:22:15.430Z,91.10
2018-05-27T00:24:43.019Z,91.20
2018-05-27T00:27:10.588Z,90.90
2018-05-27T00:29:38.146Z,90.70
2018-05-27T00:32:05.766Z,90.60
2018-05-27T00:34:33.338Z,90.80
2018-05-27T00:37:00.891Z,91.30
2018-05-27T00:39:28.468Z,91.40
2018-05-27T00:41:56.052Z,91.20
2018-05-27T00:44:23.648Z,91.60
2018-05-27T00:46:51.929Z,91.60
2018-05-27T00:49:19.524Z,91.80
2018-05-27T00:51:47.099Z,92.00
2018-05-27T00:54:14.729Z,92.10
2018-05-27T00:56:42.290Z,92.20
2018-05-27T00:59:09.856Z,92.10
2018-05-27T01:01:37.422Z,91.80
2018-05-27T01:04:06.529Z,91.40
2018-05-27T01:06:34.098Z,91.50
2018-05-27T01:09:01.670Z,91.60
2018-05-27T01:11:29.275Z,91.60
2018-05-27T01:13:56.861Z,91.80
2018-05-27T01:16:24.452Z,91.90
2018-05-27T01:18:52.039Z,92.20
2018-05-27T01:21:19.592Z,92.40
2018-05-27T01:23:47.168Z,92.30
2018-05-27T01:26:14.756Z,92.50
2018-05-27T01:28:42.342Z,92.60
2018-05-27T01:31:09.925Z,92.60
2018-05-27T01:33:37.467Z,92.40
2018-05-27T01:36:05.051Z,92.40
2018-05-27T01:38:32.626Z,92.40
2018-05-27T01:41:00.218Z,92.50
2018-05-27T01:43:27.774Z,92.20
2018-05-27T01:45:55.393Z,92.20
2018-05-27T01:48:22.932Z,92.30
2018-05-27T01:50:50.542Z,92.50
2018-05-27T01:53:18.080Z,92.60
2018-05-27T01:55:45.706Z,92.70
2018-05-27T01:58:13.304Z,92.60
2018-05-27T02:00:40.908Z,92.40
2018-05-27T02:03:08.481Z,92.60
2018-05-27T02:05:36.049Z,92.70
2018-05-27T02:08:03.593Z,92.80
2018-05-27T02:10:31.189Z,92.80
2018-05-27T02:12:58.726Z,92.90
2018-05-27T02:15:26.294Z,92.90
2018-05-27T02:17:53.858Z,93.00
2018-05-27T02:20:21.428Z,93.00
2018-05-27T02:22:48.957Z,92.90
2018-05-27T02:25:16.552Z,92.80
2018-05-27T02:27:44.114Z,92.50
2018-05-27T02:30:11.685Z,92.40
2018-05-27T02:32:39.257Z,92.70
2018-05-27T02:35:06.833Z,92.80
2018-05-27T02:37:34.398Z,92.80
2018-05-27T02:40:01.955Z,93.00
2018-05-27T02:42:29.537Z,93.00
2018-05-27T02:44:57.061Z,93.10
2018-05-27T02:47:24.637Z,93.20
2018-05-27T02:49:52.223Z,93.30
2018-05-27T02:52:19.847Z,93.30
2018-05-27T02:54:47.424Z,93.20
2018-05-27T02:57:15.018Z,93.20
2018-05-27T02:59:42.547Z,93.30
2018-05-27T03:02:10.140Z,93.20
2018-05-27T03:04:38.081Z,93.30
2018-05-27T03:07:05.691Z,93.30
2018-05-27T03:09:33.660Z,93.50
2018-05-27T03:12:01.230Z,93.50
2018-05-27T03:14:28.918Z,93.50
2018-05-27T03:16:56.515Z,93.40
2018-05-27T03:19:24.059Z,93.50
2018-05-27T03:21:51.650Z,93.60
2018-05-27T03:24:19.192Z,93.40
2018-05-27T03:26:46.770Z,93.30
2018-05-27T03:29:14.352Z,93.50
2018-05-27T03:31:42.329Z,93.30
2018-05-27T03:34:09.905Z,93.30
2018-05-27T03:36:37.500Z,93.40
2018-05-27T03:39:05.791Z,93.30
2018-05-27T03:41:33.362Z,93.30
2018-05-27T03:44:00.937Z,93.70
2018-05-27T03:46:28.474Z,93.80
2018-05-27T03:48:56.054Z,93.60
2018-05-27T03:51:23.591Z,93.70
2018-05-27T03:53:51.177Z,93.70
2018-05-27T03:56:18.746Z,93.60
2018-05-27T03:58:46.349Z,93.70
2018-05-27T04:01:13.906Z,93.90
2018-05-27T04:03:41.517Z,94.00
2018-05-27T04:06:20.892Z,94.00
2018-05-27T04:08:49.333Z,94.20
2018-05-27T04:11:16.864Z,94.20
2018-05-27T04:13:44.432Z,94.20
2018-05-27T04:16:12.050Z,94.10
2018-05-27T04:18:39.633Z,93.50
2018-05-27T04:21:07.223Z,93.60
2018-05-27T04:23:34.790Z,93.50
2018-05-27T04:26:03.549Z,93.50
2018-05-27T04:28:31.258Z,93.60
2018-05-27T04:30:58.767Z,94.00
2018-05-27T04:33:26.355Z,93.90
2018-05-27T04:35:53.914Z,93.90
2018-05-27T04:38:21.489Z,93.80
2018-05-27T04:40:49.083Z,93.90
2018-05-27T04:43:16.676Z,94.00
2018-05-27T04:45:44.246Z,93.80
2018-05-27T04:48:11.817Z,93.80
2018-05-27T04:50:39.372Z,93.90
2018-05-27T04:53:06.991Z,93.90
2018-05-27T04:55:34.568Z,93.80
2018-05-27T04:58:02.141Z,93.70
2018-05-27T05:00:29.705Z,93.50
2018-05-27T05:02:57.316Z,93.60
2018-05-27T05:05:24.877Z,93.50
2018-05-27T05:07:52.408Z,93.10
2018-05-27T05:10:19.985Z,92.90
2018-05-27T05:12:47.551Z,92.50
2018-05-27T05:15:15.169Z,92.40
2018-05-27T05:17:42.709Z,92.30
2018-05-27T05:20:10.338Z,92.30
2018-05-27T05:22:37.906Z,92.20
2018-05-27T05:25:05.486Z,92.00
2018-05-27T05:27:33.028Z,92.00
2018-05-27T05:30:00.598Z,91.80
2018-05-27T05:32:28.147Z,91.70
2018-05-27T05:34:55.733Z,91.50
2018-05-27T05:37:23.303Z,91.30
2018-05-27T05:39:50.906Z,91.10
2018-05-27T05:42:18.434Z,90.90
2018-05-27T05:44:46.051Z,90.70
2018-05-27T05:47:13.639Z,90.70
2018-05-27T05:49:41.231Z,90.60
2018-05-27T05:52:08.842Z,90.70
2018-05-27T05:54:36.447Z,90.10
2018-05-27T05:57:04.019Z,90.00
2018-05-27T05:59:31.590Z,89.50
2018-05-27T06:01:59.182Z,89.60
2018-05-27T06:04:26.766Z,89.60
2018-05-27T06:06:54.742Z,88.70
2018-05-27T06:09:22.316Z,88.70
2018-05-27T06:11:50.020Z,88.60
2018-05-27T06:14:17.645Z,88.70
2018-05-27T06:16:45.201Z,88.00
2018-05-27T06:19:12.738Z,87.30
2018-05-27T06:21:40.310Z,86.80
2018-05-27T06:24:07.898Z,86.30
2018-05-27T06:26:35.438Z,86.30
2018-05-27T06:29:02.989Z,86.60
2018-05-27T06:31:30.530Z,85.80
2018-05-27T06:33:58.109Z,85.50
2018-05-27T06:36:25.645Z,85.50
2018-05-27T06:38:53.222Z,85.50
2018-05-27T06:41:20.772Z,85.30
2018-05-27T06:43:48.304Z,84.90
2018-05-27T06:46:15.889Z,84.40
2018-05-27T06:48:43.442Z,84.30
2018-05-27T06:51:11.032Z,84.20
2018-05-27T06:53:38.571Z,84.00
2018-05-27T06:56:06.175Z,82.70
2018-05-27T06:58:33.804Z,82.30
2018-05-27T07:01:01.788Z,80.00
2018-05-27T07:03:29.408Z,80.00
2018-05-27T07:05:56.975Z,80.10
2018-05-27T07:08:24.556Z,79.70
2018-05-27T07:10:52.184Z,79.20
2018-05-27T07:13:19.722Z,80.10
2018-05-27T07:15:47.741Z,77.70
2018-05-27T07:18:15.264Z,77.60
2018-05-27T07:20:42.813Z,77.30
2018-05-27T07:23:10.785Z,77.00
2018-05-27T07:25:38.381Z,77.00
2018-05-27T07:28:05.929Z,77.10
2018-05-27T07:30:33.499Z,76.20
2018-05-27T07:33:01.092Z,74.80
2018-05-27T07:35:28.638Z,74.20
2018-05-27T07:37:56.227Z,73.20
2018-05-27T07:40:23.838Z,74.20
2018-05-27T07:42:51.424Z,73.00
2018-05-27T07:45:19.013Z,71.70
2018-05-27T07:47:46.606Z,71.50
2018-05-27T07:50:14.157Z,70.30
2018-05-27T07:52:41.721Z,71.40
2018-05-27T07:55:09.254Z,70.00
2018-05-27T07:57:36.920Z,68.90
2018-05-27T08:00:04.616Z,68.90
2018-05-27T08:02:32.246Z,67.70
2018-05-27T08:04:59.854Z,68.90
2018-05-27T08:07:27.489Z,67.80
2018-05-27T08:09:55.062Z,67.80
2018-05-27T08:12:24.749Z,66.70
2018-05-27T08:14:52.607Z,67.00
2018-05-27T08:17:20.207Z,68.10
2018-05-27T08:19:47.842Z,69.60
2018-05-27T08:22:15.864Z,68.50
2018-05-27T08:24:43.419Z,68.50
2018-05-27T08:27:11.429Z,67.80
2018-05-27T08:29:38.960Z,67.80
2018-05-27T08:32:06.542Z,66.40
2018-05-27T08:34:34.118Z,68.20
2018-05-27T08:37:01.718Z,68.70
2018-05-27T08:39:29.759Z,70.10
2018-05-27T08:41:57.362Z,70.10
2018-05-27T08:44:25.855Z,69.40
2018-05-27T08:46:53.399Z,70.80
2018-05-27T08:49:20.974Z,71.10
2018-05-27T08:51:48.548Z,70.60
2018-05-27T08:54:16.112Z,71.60
2018-05-27T08:56:43.700Z,72.90
2018-05-27T08:59:11.592Z,71.20
2018-05-27T09:01:39.561Z,68.90
2018-05-27T09:04:07.168Z,68.90
2018-05-27T09:06:34.745Z,69.30
2018-05-27T09:09:02.382Z,67.00
2018-05-27T09:11:29.942Z,66.50
2018-05-27T09:13:57.566Z,65.20
2018-05-27T09:16:25.558Z,66.70
2018-05-27T09:18:53.155Z,67.10
2018-05-27T09:21:20.747Z,67.20
2018-05-27T09:23:48.349Z,67.80
2018-05-27T09:26:15.931Z,67.10
2018-05-27T09:28:43.553Z,68.00
2018-05-27T09:31:11.114Z,66.40
2018-05-27T09:33:38.739Z,66.70
2018-05-27T09:36:06.685Z,65.50
2018-05-27T09:38:34.249Z,65.50
2018-05-27T09:41:02.252Z,64.10
2018-05-27T09:43:29.809Z,64.10
2018-05-27T09:45:57.541Z,66.40
2018-05-27T09:48:25.965Z,64.50
2018-05-27T09:50:54.316Z,64.50
2018-05-27T09:53:21.851Z,64.50
2018-05-27T09:55:49.448Z,63.60
2018-05-27T09:58:17.709Z,61.50
2018-05-27T10:00:45.358Z,61.40
2018-05-27T10:03:12.898Z,60.90
2018-05-27T10:05:40.499Z,61.10
2018-05-27T10:08:08.817Z,62.00
2018-05-27T10:10:36.425Z,60.60
2018-05-27T10:13:04.014Z,59.60
2018-05-27T10:15:31.593Z,60.50
2018-05-27T10:17:59.157Z,62.20
2018-05-27T10:20:26.862Z,62.40
2018-05-27T10:22:54.441Z,62.60
2018-05-27T10:25:22.013Z,62.10
2018-05-27T10:27:49.566Z,60.10
2018-05-27T10:30:17.165Z,58.90
2018-05-27T10:32:44.735Z,60.00
2018-05-27T10:35:12.261Z,59.70
2018-05-27T10:37:39.866Z,58.70
2018-05-27T10:40:07.433Z,58.50
2018-05-27T10:42:34.977Z,59.30
2018-05-27T10:45:02.564Z,57.00
2018-05-27T10:47:30.106Z,56.30
2018-05-27T10:49:57.677Z,57.50
2018-05-27T10:52:25.271Z,57.80
2018-05-27T10:54:52.853Z,58.70
2018-05-27T10:57:20.840Z,62.20
2018-05-27T10:59:48.431Z,62.20
2018-05-27T11:02:15.985Z,62.60
2018-05-27T11:04:43.532Z,62.80
2018-05-27T11:07:11.131Z,62.80
2018-05-27T11:09:38.693Z,63.40
2018-05-27T11:12:06.289Z,65.20
2018-05-27T11:14:33.865Z,67.00
2018-05-27T11:17:01.441Z,67.70
2018-05-27T11:19:29.113Z,65.90
2018-05-27T11:21:56.953Z,65.00
2018-05-27T11:24:24.788Z,63.70
2018-05-27T11:26:52.358Z,64.10
2018-05-27T11:29:19.894Z,62.70
2018-05-27T11:31:47.476Z,63.00
2018-05-27T11:34:15.020Z,63.00
2018-05-27T11:36:43.319Z,62.20
2018-05-27T11:39:14.689Z,62.20
2018-05-27T11:41:42.350Z,60.90
2018-05-27T11:44:09.890Z,61.40
2018-05-27T11:46:37.486Z,60.80
2018-05-27T11:49:05.014Z,59.20
2018-05-27T11:51:32.607Z,56.90
2018-05-27T11:54:00.181Z,58.40
2018-05-27T11:56:27.796Z,58.60
2018-05-27T11:58:55.337Z,57.80
2018-05-27T12:01:22.912Z,57.80
2018-05-27T12:03:50.506Z,59.30
2018-05-27T12:06:18.063Z,59.80
2018-05-27T12:08:45.630Z,59.90
2018-05-27T12:11:13.174Z,59.80
2018-05-27T12:13:40.767Z,60.60
2018-05-27T12:16:08.335Z,63.10
2018-05-27T12:18:35.920Z,63.80
2018-05-27T12:21:03.583Z,64.80
2018-05-27T12:23:31.149Z,65.80
2018-05-27T12:25:58.717Z,67.20
2018-05-27T12:28:26.348Z,67.00
2018-05-27T12:30:53.881Z,65.80
2018-05-27T12:33:21.454Z,67.00
2018-05-27T12:35:49.020Z,67.90
2018-05-27T12:38:16.604Z,66.40
2018-05-27T12:40:44.163Z,66.50
2018-05-27T12:43:11.811Z,66.70
2018-05-27T12:45:39.351Z,67.80
2018-05-27T12:48:07.325Z,68.70
2018-05-27T12:50:34.856Z,68.70
2018-05-27T12:53:02.433Z,69.10
2018-05-27T12:55:30.007Z,69.50
2018-05-27T12:57:57.577Z,68.50
2018-05-27T13:00:25.149Z,68.40
2018-05-27T13:02:52.749Z,67.30
2018-05-27T13:05:20.306Z,68.60
2018-05-27T13:07:47.874Z,67.80
2018-05-27T13:10:15.481Z,67.00
2018-05-27T13:12:43.122Z,67.90
2018-05-27T13:15:11.301Z,68.20
2018-05-27T13:17:38.848Z,68.80
2018-05-27T13:20:06.401Z,68.60
2018-05-27T13:22:34.186Z,67.60
2018-05-27T13:25:01.840Z,67.80
2018-05-27T13:27:29.471Z,67.10
2018-05-27T13:29:57.041Z,66.80
2018-05-27T13:32:25.305Z,66.60
2018-05-27T13:34:52.893Z,66.80
2018-05-27T13:37:20.482Z,65.80
2018-05-27T13:39:48.089Z,64.50
2018-05-27T13:42:15.679Z,64.90
2018-05-27T13:44:43.867Z,65.20
2018-05-27T13:47:11.421Z,62.10
2018-05-27T13:49:39.424Z,62.30
2018-05-27T13:52:06.963Z,62.30
2018-05-27T13:54:34.940Z,61.00
2018-05-27T13:57:02.487Z,61.00
2018-05-27T13:59:30.523Z,60.10
2018-05-27T14:01:58.963Z,57.80
2018-05-27T14:04:26.603Z,58.00
2018-05-27T14:06:54.180Z,56.70
2018-05-27T14:09:21.806Z,56.50
2018-05-27T14:11:49.390Z,54.20
2018-05-27T14:14:16.990Z,54.10
2018-05-27T14:16:44.605Z,53.40
2018-05-27T14:19:13.245Z,52.70
2018-05-27T14:21:40.853Z,51.80
2018-05-27T14:24:08.449Z,50.90
2018-05-27T14:26:36.032Z,49.70
2018-05-27T14:29:03.625Z,48.50
2018-05-27T14:31:31.200Z,48.60
2018-05-27T14:33:58.728Z,48.60
2018-05-27T14:36:26.292Z,49.10
2018-05-27T14:38:53.867Z,49.50
2018-05-27T14:41:21.436Z,49.20
2018-05-27T14:43:48.987Z,50.10
2018-05-27T14:46:16.609Z,54.00
2018-05-27T14:48:44.209Z,55.80
2018-05-27T14:51:11.795Z,57.00
2018-05-27T14:53:39.306Z,56.70
2018-05-27T14:56:07.270Z,58.10
2018-05-27T14:58:34.874Z,58.10
2018-05-27T15:01:02.457Z,58.90
2018-05-27T15:03:30.033Z,58.70
2018-05-27T15:05:57.662Z,60.20
2018-05-27T15:08:25.274Z,60.80
2018-05-27T15:10:53.250Z,63.90
2018-05-27T15:13:20.869Z,63.90
2018-05-27T15:15:48.494Z,64.20
2018-05-27T15:18:16.107Z,65.20
2018-05-27T15:20:43.697Z,66.60
2018-05-27T15:23:11.291Z,68.20
2018-05-27T15:25:38.863Z,69.10
2018-05-27T15:28:06.453Z,70.10
2018-05-27T15:30:34.446Z,70.30
2018-05-27T15:33:02.002Z,70.30
2018-05-27T15:35:29.577Z,70.50
2018-05-27T15:37:57.166Z,70.00
2018-05-27T15:40:24.799Z,70.00
2018-05-27T15:42:52.379Z,70.90
2018-05-27T15:45:19.927Z,70.80
2018-05-27T15:47:47.555Z,70.60
2018-05-27T15:50:15.163Z,71.10
2018-05-27T15:52:42.744Z,71.20
2018-05-27T15:55:10.321Z,70.80
2018-05-27T15:57:37.879Z,71.20
2018-05-27T16:00:05.520Z,71.20
2018-05-27T16:02:33.086Z,71.60
2018-05-27T16:05:00.660Z,73.60
2018-05-27T16:07:28.374Z,75.80
2018-05-27T16:09:55.898Z,76.70
2018-05-27T16:12:23.490Z,76.20
2018-05-27T16:14:51.057Z,73.70
2018-05-27T16:17:18.666Z,74.80
2018-05-27T16:19:46.189Z,75.90
2018-05-27T16:22:13.805Z,75.70
2018-05-27T16:24:43.594Z,75.80
2018-05-27T16:27:11.190Z,76.90
2018-05-27T16:29:38.788Z,76.60
2018-05-27T16:32:06.414Z,76.80
2018-05-27T16:34:34.385Z,76.60
2018-05-27T16:37:01.931Z,76.50
2018-05-27T16:39:29.503Z,76.20
2018-05-27T16:41:57.093Z,76.30
2018-05-27T16:44:24.691Z,77.20
2018-05-27T16:46:52.267Z,77.00
2018-05-27T16:49:19.900Z,76.50
2018-05-27T16:51:47.490Z,76.40
2018-05-27T16:54:15.080Z,77.30
2018-05-27T16:56:42.669Z,77.20
2018-05-27T16:59:10.222Z,76.70
2018-05-27T17:01:37.857Z,77.30
2018-05-27T17:04:05.460Z,77.00
2018-05-27T17:06:33.004Z,76.80
2018-05-27T17:09:00.602Z,75.90
2018-05-27T17:11:28.147Z,75.70
2018-05-27T17:13:55.767Z,75.60
2018-05-27T17:16:23.414Z,75.90
2018-05-27T17:18:50.967Z,75.40
2018-05-27T17:21:18.554Z,75.40
2018-05-27T17:23:46.123Z,73.40
2018-05-27T17:26:13.687Z,72.70
2018-05-27T17:28:41.317Z,71.70
2018-05-27T17:31:08.943Z,71.10
2018-05-27T17:33:36.573Z,69.90
2018-05-27T17:36:04.198Z,67.40
2018-05-27T17:38:31.753Z,67.40
2018-05-27T17:40:59.307Z,66.50
2018-05-27T17:43:26.914Z,66.20
2018-05-27T17:45:54.529Z,66.50
2018-05-27T17:48:22.092Z,65.40
2018-05-27T17:50:49.666Z,65.90
2018-05-27T17:53:17.237Z,66.20
2018-05-27T17:55:44.840Z,66.90
2018-05-27T17:58:12.367Z,68.00
2018-05-27T18:00:39.959Z,68.00
2018-05-27T18:03:07.521Z,68.30
2018-05-27T18:05:35.481Z,68.50
2018-05-27T18:08:03.064Z,68.50
2018-05-27T18:10:30.615Z,68.80
2018-05-27T18:12:58.170Z,69.10
2018-05-27T18:15:25.750Z,69.10
2018-05-27T18:17:53.285Z,68.80
2018-05-27T18:20:20.908Z,69.10
2018-05-27T18:22:48.552Z,69.90
2018-05-27T18:25:16.142Z,70.50
2018-05-27T18:27:43.686Z,71.10
2018-05-27T18:30:11.290Z,71.90
2018-05-27T18:32:38.919Z,72.70
2018-05-27T18:35:06.511Z,73.00
2018-05-27T18:37:34.050Z,73.70
2018-05-27T18:40:02.042Z,74.40
2018-05-27T18:42:29.646Z,74.50
2018-05-27T18:44:57.270Z,75.10
2018-05-27T18:47:24.859Z,75.90
2018-05-27T18:49:52.391Z,77.10
2018-05-27T18:52:19.963Z,78.20
2018-05-27T18:54:47.543Z,78.30
2018-05-27T18:57:15.170Z,78.60
2018-05-27T18:59:42.721Z,80.00
2018-05-27T19:02:10.357Z,80.90
2018-05-27T19:04:37.958Z,81.00
2018-05-27T19:07:05.552Z,81.40
2018-05-27T19:09:33.171Z,81.60
2018-05-27T19:12:01.813Z,82.40
2018-05-27T19:14:29.806Z,82.90
2018-05-27T19:16:57.389Z,82.90
2018-05-27T19:19:24.947Z,83.60
2018-05-27T19:21:52.563Z,83.90
2018-05-27T19:24:20.567Z,84.00
2018-05-27T19:26:48.151Z,84.00
2018-05-27T19:29:15.706Z,84.50
2018-05-27T19:31:43.283Z,84.60
2018-05-27T19:34:10.822Z,85.00
2018-05-27T19:36:38.430Z,85.20
2018-05-27T19:39:05.969Z,85.20
2018-05-27T19:41:33.523Z,85.20
2018-05-27T19:44:01.114Z,85.40
2018-05-27T19:46:28.701Z,85.80
2018-05-27T19:48:56.257Z,86.30
2018-05-27T19:51:23.829Z,86.50
2018-05-27T19:53:51.373Z,86.40
2018-05-27T19:56:18.957Z,86.30
2018-05-27T19:58:46.506Z,86.40
2018-05-27T20:01:14.032Z,86.70
2018-05-27T20:03:41.622Z,86.80
2018-05-27T20:06:09.260Z,86.90
2018-05-27T20:08:36.840Z,87.00
2018-05-27T20:11:04.489Z,87.00
2018-05-27T20:13:32.170Z,87.00
2018-05-27T20:16:05.310Z,86.90
2018-05-27T20:18:32.909Z,86.70
2018-05-27T20:21:00.479Z,86.50
2018-05-27T20:23:28.058Z,86.30
2018-05-27T20:25:55.605Z,86.40
2018-05-27T20:28:23.190Z,86.90
2018-05-27T20:30:51.157Z,87.30
2018-05-27T20:33:19.160Z,87.90
2018-05-27T20:35:46.708Z,87.90
2018-05-27T20:38:14.257Z,88.70
2018-05-27T20:40:41.870Z,89.10
2018-05-27T20:43:09.480Z,89.60
2018-05-27T20:45:37.061Z,89.60
2018-05-27T20:48:04.652Z,89.50
2018-05-27T20:50:32.293Z,89.50
2018-05-27T20:52:59.952Z,89.60
2018-05-27T20:55:27.517Z,89.40
2018-05-27T20:57:55.139Z,89.70
2018-05-27T21:00:22.683Z,89.60
2018-05-27T21:02:50.301Z,89.50
2018-05-27T21:05:17.849Z,89.30
2018-05-27T21:07:45.438Z,89.30
2018-05-27T21:10:13.381Z,89.30
2018-05-27T21:12:40.915Z,89.30
2018-05-27T21:15:08.506Z,89.50
2018-05-27T21:17:36.075Z,89.40
2018-05-27T21:20:03.689Z,89.40
2018-05-27T21:22:31.230Z,89.80
2018-05-27T21:24:58.851Z,90.10
2018-05-27T21:27:26.398Z,90.10
2018-05-27T21:29:54.031Z,90.30
2018-05-27T21:32:21.594Z,90.60
2018-05-27T21:34:49.202Z,90.40
2018-05-27T21:37:16.836Z,90.50
2018-05-27T21:39:44.435Z,90.80
2018-05-27T21:42:12.015Z,90.80
2018-05-27T21:44:39.634Z,90.80
2018-05-27T21:47:07.195Z,90.80
2018-05-27T21:49:35.116Z,90.70
2018-05-27T21:52:02.687Z,90.80
2018-05-27T21:54:30.285Z,90.80
2018-05-27T21:56:57.879Z,91.10
2018-05-27T21:59:25.474Z,91.30
2018-05-27T22:01:53.010Z,91.20
2018-05-27T22:04:20.581Z,91.40
2018-05-27T22:06:48.116Z,91.30
2018-05-27T22:09:15.705Z,91.30
2018-05-27T22:11:43.262Z,91.30
2018-05-27T22:14:10.865Z,91.50
2018-05-27T22:16:38.502Z,91.40
2018-05-27T22:19:06.042Z,91.50
2018-05-27T22:21:33.681Z,91.40
2018-05-27T22:24:01.236Z,91.40
2018-05-27T22:26:28.851Z,91.80
2018-05-27T22:28:56.422Z,91.80
2018-05-27T22:31:24.050Z,91.80
2018-05-27T22:33:51.629Z,91.70
2018-05-27T22:36:19.209Z,91.60
2018-05-27T22:38:46.779Z,91.50
2018-05-27T22:41:14.338Z,91.70
2018-05-27T22:43:41.874Z,92.10
2018-05-27T22:46:09.473Z,92.30
2018-05-27T22:48:37.035Z,92.30
2018-05-27T22:51:04.613Z,92.50
2018-05-27T22:53:32.140Z,92.70
2018-05-27T22:55:59.798Z,93.00
2018-05-27T22:58:27.349Z,93.10
2018-05-27T23:00:54.945Z,93.20
2018-05-27T23:03:22.500Z,93.30
2018-05-27T23:05:50.117Z,93.30
2018-05-27T23:08:17.670Z,93.40
2018-05-27T23:10:45.260Z,93.30
2018-05-27T23:13:12.882Z,93.40
2018-05-27T23:15:40.429Z,93.40
2018-05-27T23:18:07.955Z,93.30
2018-05-27T23:20:35.515Z,93.30
2018-05-27T23:23:03.070Z,93.20
2018-05-27T23:25:30.677Z,93.10
2018-05-27T23:28:00.316Z,93.20
2018-05-27T23:30:29.219Z,93.20
2018-05-27T23:32:57.609Z,93.10
2018-05-27T23:35:25.324Z,93.20
2018-05-27T23:37:55.002Z,93.30
2018-05-27T23:40:23.308Z,93.30
2018-05-27T23:42:50.938Z,93.20
2018-05-27T23:45:18.941Z,93.20
2018-05-27T23:47:46.542Z,93.10
2018-05-27T23:50:14.100Z,93.10
2018-05-27T23:52:41.681Z,93.00
2018-05-27T23:55:09.231Z,93.00
2018-05-27T23:57:36.864Z,93.00
